Richmond, Michigan
Current Conditions -  °F | °C
As of 4:57 AM on Friday 28 Nov 2014 (Local Time) from KPHN Reporting Station
Overcast Overcast  
Wind Chill: 10°   Ceiling: 3400
Heat Index: 19°   Visibility: 10mi
Dew Point:   Wind: 7mph
Humidity: 63%   Direction: 290°WNW
Pressure: 30.32"   Gusts: NA
Location:  42.81°N, 82.76°W
Report Text: KPHN 280957Z AUTO 29006KT 10SM OVC034 M07/M13 A3032 RMK AO2
Loading
Personal Weather Stations






























Interactive Weather Map New forecast layout! Learn more

10-Day Weather Forecast

Advertisements
Track Severe Weather on mobile